createdAt,value
2018-09-30T00:00:46.060Z,32.80
2018-09-30T00:01:46.036Z,31.70
2018-09-30T00:02:46.012Z,30.10
2018-09-30T00:03:45.988Z,31.60
2018-09-30T00:04:45.979Z,32.00
2018-09-30T00:05:45.958Z,32.80
2018-09-30T00:06:45.939Z,33.00
2018-09-30T00:07:45.916Z,32.50
2018-09-30T00:08:45.893Z,32.30
2018-09-30T00:09:45.866Z,32.80
2018-09-30T00:10:45.857Z,31.50
2018-09-30T00:11:45.843Z,31.30
2018-09-30T00:12:45.816Z,32.80
2018-09-30T00:13:45.780Z,31.10
2018-09-30T00:14:45.778Z,31.70
2018-09-30T00:15:45.736Z,32.80
2018-09-30T00:16:45.731Z,32.90
2018-09-30T00:17:45.707Z,33.80
2018-09-30T00:18:45.673Z,32.30
2018-09-30T00:19:45.666Z,32.10
2018-09-30T00:20:45.647Z,33.70
2018-09-30T00:21:45.611Z,31.20
2018-09-30T00:22:45.601Z,32.60
2018-09-30T00:23:45.577Z,32.90
2018-09-30T00:24:45.551Z,29.60
2018-09-30T00:25:45.531Z,30.30
2018-09-30T00:26:45.525Z,28.50
2018-09-30T00:27:45.489Z,25.60
2018-09-30T00:28:45.468Z,26.20
2018-09-30T00:29:45.456Z,25.70
2018-09-30T00:30:45.426Z,27.00
2018-09-30T00:31:45.421Z,26.10
2018-09-30T00:32:45.396Z,25.90
2018-09-30T00:33:45.364Z,25.20
2018-09-30T00:34:45.354Z,23.50
2018-09-30T00:35:45.325Z,21.90
2018-09-30T00:36:45.314Z,22.90
2018-09-30T00:37:45.294Z,22.60
2018-09-30T00:38:45.265Z,21.10
2018-09-30T00:39:45.260Z,20.00
2018-09-30T00:40:45.238Z,18.60
2018-09-30T00:41:45.206Z,18.90
2018-09-30T00:42:45.183Z,16.10
2018-09-30T00:43:45.171Z,17.70
2018-09-30T00:44:45.154Z,18.20
2018-09-30T00:45:45.130Z,16.00
2018-09-30T00:46:45.108Z,17.70
2018-09-30T00:47:45.097Z,17.60
2018-09-30T00:48:45.048Z,17.80
2018-09-30T00:49:45.038Z,18.10
2018-09-30T00:50:45.026Z,19.60
2018-09-30T00:51:44.990Z,18.30
2018-09-30T00:52:44.974Z,18.60
2018-09-30T00:53:44.953Z,17.90
2018-09-30T00:54:44.940Z,17.30
2018-09-30T00:55:44.912Z,19.50
2018-09-30T00:56:44.896Z,19.00
2018-09-30T00:57:44.859Z,19.60
2018-09-30T00:58:44.857Z,19.80
2018-09-30T00:59:44.836Z,19.80
2018-09-30T01:00:44.803Z,21.10
2018-09-30T01:01:44.794Z,20.50
2018-09-30T01:02:44.765Z,20.60
2018-09-30T01:03:44.739Z,20.10
2018-09-30T01:04:44.722Z,20.90
2018-09-30T01:05:44.712Z,20.10
2018-09-30T01:06:44.694Z,20.50
2018-09-30T01:07:44.666Z,21.90
2018-09-30T01:08:44.638Z,21.50
2018-09-30T01:09:44.629Z,21.70
2018-09-30T01:10:44.608Z,21.50
2018-09-30T01:11:44.579Z,20.90
2018-09-30T01:12:44.554Z,22.80
2018-09-30T01:13:44.530Z,21.00
2018-09-30T01:14:44.511Z,22.20
2018-09-30T01:15:44.483Z,21.40
2018-09-30T01:16:44.469Z,24.60
2018-09-30T01:17:44.456Z,23.10
2018-09-30T01:18:44.423Z,22.50
2018-09-30T01:19:44.404Z,23.00
2018-09-30T01:20:44.393Z,21.30
2018-09-30T01:21:44.375Z,23.40
2018-09-30T01:22:44.340Z,23.00
2018-09-30T01:23:44.333Z,22.70
2018-09-30T01:24:44.299Z,22.40
2018-09-30T01:25:44.284Z,22.60
2018-09-30T01:26:44.258Z,23.50
2018-09-30T01:27:44.239Z,21.70
2018-09-30T01:28:44.224Z,23.00
2018-09-30T01:29:44.201Z,20.50
2018-09-30T01:30:44.173Z,20.30
2018-09-30T01:31:44.152Z,23.00
2018-09-30T01:32:44.133Z,22.60
2018-09-30T01:33:44.116Z,23.20
2018-09-30T01:34:44.091Z,22.70
2018-09-30T01:35:44.079Z,24.50
2018-09-30T01:36:44.053Z,20.90
2018-09-30T01:37:44.036Z,22.60
2018-09-30T01:38:44.019Z,22.60
2018-09-30T01:39:44.003Z,22.10
2018-09-30T01:40:43.976Z,22.80
2018-09-30T01:41:43.958Z,21.00
2018-09-30T01:42:43.917Z,21.80
2018-09-30T01:43:43.904Z,20.20
2018-09-30T01:44:43.881Z,22.60
2018-09-30T01:45:43.880Z,21.70
2018-09-30T01:46:43.843Z,21.80
2018-09-30T01:47:43.818Z,21.20
2018-09-30T01:48:43.802Z,21.50
2018-09-30T01:49:43.787Z,22.60
2018-09-30T01:50:43.760Z,23.30
2018-09-30T01:51:43.744Z,21.90
2018-09-30T01:52:43.723Z,23.20
2018-09-30T01:53:43.702Z,23.10
2018-09-30T01:54:43.669Z,21.60
2018-09-30T01:55:43.663Z,20.80
2018-09-30T01:56:43.637Z,21.40
2018-09-30T01:57:43.618Z,21.70
2018-09-30T01:58:43.583Z,22.80
2018-09-30T01:59:43.577Z,21.80
2018-09-30T02:00:43.563Z,21.30
2018-09-30T02:01:43.536Z,21.50
2018-09-30T02:02:43.504Z,19.30
2018-09-30T02:03:43.495Z,21.30
2018-09-30T02:04:43.470Z,21.30
2018-09-30T02:05:43.452Z,19.90
2018-09-30T02:06:43.423Z,21.20
2018-09-30T02:07:43.409Z,20.20
2018-09-30T02:08:43.381Z,20.70
2018-09-30T02:09:43.362Z,20.80
2018-09-30T02:10:43.348Z,21.30
2018-09-30T02:11:43.314Z,22.00
2018-09-30T02:12:43.304Z,20.00
2018-09-30T02:13:43.293Z,21.10
2018-09-30T02:14:43.253Z,19.90
2018-09-30T02:15:43.238Z,20.60
2018-09-30T02:16:43.215Z,19.80
2018-09-30T02:17:43.185Z,19.30
2018-09-30T02:18:43.170Z,20.70
2018-09-30T02:19:43.159Z,21.50
2018-09-30T02:20:43.130Z,19.00
2018-09-30T02:21:43.116Z,20.40
2018-09-30T02:22:43.091Z,20.60
2018-09-30T02:23:43.064Z,19.90
2018-09-30T02:24:43.055Z,20.50
2018-09-30T02:25:43.036Z,20.30
2018-09-30T02:26:43.003Z,20.20
2018-09-30T02:27:42.991Z,19.60
2018-09-30T02:28:42.960Z,19.20
2018-09-30T02:29:42.952Z,16.60
2018-09-30T02:30:42.920Z,17.40
2018-09-30T02:31:42.902Z,18.80
2018-09-30T02:32:42.875Z,18.40
2018-09-30T02:33:42.868Z,19.60
2018-09-30T02:34:42.838Z,19.00
2018-09-30T02:35:42.824Z,18.50
2018-09-30T02:36:42.811Z,20.60
2018-09-30T02:37:42.785Z,19.70
2018-09-30T02:38:42.761Z,21.30
2018-09-30T02:39:42.734Z,19.80
2018-09-30T02:40:42.721Z,20.80
2018-09-30T02:41:42.686Z,20.40
2018-09-30T02:42:42.672Z,20.80
2018-09-30T02:43:42.660Z,19.40
2018-09-30T02:44:42.632Z,19.00
2018-09-30T02:45:42.612Z,19.60
2018-09-30T02:46:42.590Z,18.50
2018-09-30T02:47:42.558Z,20.00
2018-09-30T02:48:42.548Z,21.10
2018-09-30T02:49:42.531Z,19.40
2018-09-30T02:50:42.509Z,20.00
2018-09-30T02:51:42.555Z,17.80
2018-09-30T02:52:42.466Z,21.10
2018-09-30T02:53:42.450Z,19.50
2018-09-30T02:54:42.422Z,19.70
2018-09-30T02:55:42.402Z,20.70
2018-09-30T02:56:42.389Z,17.80
2018-09-30T02:57:42.344Z,17.30
2018-09-30T02:58:42.346Z,18.30
2018-09-30T02:59:42.310Z,18.50
2018-09-30T03:00:42.293Z,17.80
2018-09-30T03:01:42.269Z,18.10
2018-09-30T03:02:42.252Z,16.40
2018-09-30T03:03:42.234Z,17.40
2018-09-30T03:04:42.199Z,16.70
2018-09-30T03:05:42.194Z,16.70
2018-09-30T03:06:42.158Z,15.10
2018-09-30T03:07:42.146Z,15.80
2018-09-30T03:08:42.130Z,15.90
2018-09-30T03:09:42.097Z,15.90
2018-09-30T03:10:42.079Z,16.00
2018-09-30T03:11:42.071Z,14.00
2018-09-30T03:12:42.034Z,15.20
2018-09-30T03:13:42.022Z,14.70
2018-09-30T03:14:41.992Z,12.70
2018-09-30T03:15:41.987Z,12.10
2018-09-30T03:16:41.965Z,12.70
2018-09-30T03:17:41.947Z,11.80
2018-09-30T03:18:41.920Z,12.90
2018-09-30T03:19:41.887Z,12.40
2018-09-30T03:20:41.868Z,13.20
2018-09-30T03:21:41.852Z,12.80
2018-09-30T03:22:41.821Z,12.20
2018-09-30T03:23:41.811Z,12.90
2018-09-30T03:24:41.798Z,14.00
2018-09-30T03:25:41.773Z,14.40
2018-09-30T03:26:41.737Z,13.80
2018-09-30T03:27:41.724Z,14.50
2018-09-30T03:28:41.701Z,14.60
2018-09-30T03:29:41.686Z,13.30
2018-09-30T03:30:41.660Z,15.00
2018-09-30T03:31:41.634Z,12.30
2018-09-30T03:32:41.613Z,13.80
2018-09-30T03:33:41.601Z,14.70
2018-09-30T03:34:41.573Z,14.40
2018-09-30T03:35:41.549Z,13.50
2018-09-30T03:36:41.539Z,15.00
2018-09-30T03:37:41.520Z,15.10
2018-09-30T03:38:41.500Z,16.20
2018-09-30T03:39:41.563Z,14.50
2018-09-30T03:40:41.452Z,15.40
2018-09-30T03:41:41.427Z,15.50
2018-09-30T03:42:41.405Z,14.90
2018-09-30T03:43:41.391Z,14.40
2018-09-30T03:44:41.376Z,16.20
2018-09-30T03:45:41.347Z,14.10
2018-09-30T03:46:41.328Z,15.70
2018-09-30T03:47:41.308Z,14.60
2018-09-30T03:48:41.282Z,14.90
2018-09-30T03:49:41.251Z,15.60
2018-09-30T03:50:41.249Z,13.20
2018-09-30T03:51:41.225Z,14.70
2018-09-30T03:52:41.194Z,14.30
2018-09-30T03:53:41.177Z,15.30
2018-09-30T03:54:41.159Z,14.60
2018-09-30T03:55:41.133Z,14.90
2018-09-30T03:56:41.161Z,14.00
2018-09-30T03:57:41.090Z,14.20
2018-09-30T03:58:41.374Z,14.40
2018-09-30T03:59:41.049Z,16.70
2018-09-30T04:00:41.039Z,16.10
2018-09-30T04:01:41.043Z,16.80
2018-09-30T04:02:40.982Z,16.80
2018-09-30T04:03:40.980Z,17.70
2018-09-30T04:04:40.950Z,17.20
2018-09-30T04:05:40.935Z,18.40
2018-09-30T04:06:40.902Z,15.70
2018-09-30T04:08:14.084Z,18.30
2018-09-30T04:08:40.867Z,21.40
2018-09-30T04:09:40.876Z,19.20
2018-09-30T04:10:40.824Z,20.00
2018-09-30T04:11:40.800Z,19.40
2018-09-30T04:12:40.785Z,21.90
2018-09-30T04:13:40.800Z,19.60
2018-09-30T04:14:40.745Z,21.00
2018-09-30T04:15:40.718Z,22.70
2018-09-30T04:16:40.693Z,20.20
2018-09-30T04:17:40.683Z,22.10
2018-09-30T04:18:40.649Z,22.10
2018-09-30T04:19:40.631Z,21.20
2018-09-30T04:20:40.617Z,20.70
2018-09-30T04:21:40.586Z,21.90
2018-09-30T04:22:40.577Z,21.40
2018-09-30T04:23:40.548Z,21.30
2018-09-30T04:24:40.524Z,20.50
2018-09-30T04:25:40.519Z,20.40
2018-09-30T04:26:40.496Z,21.20
2018-09-30T04:27:40.455Z,23.20
2018-09-30T04:28:40.457Z,22.80
2018-09-30T04:29:40.429Z,22.80
2018-09-30T04:30:40.398Z,22.00
2018-09-30T04:31:40.392Z,21.60
2018-09-30T04:32:40.371Z,22.10
2018-09-30T04:33:40.350Z,24.80
2018-09-30T04:34:40.327Z,24.90
2018-09-30T04:35:40.293Z,22.70
2018-09-30T04:36:40.272Z,24.30
2018-09-30T04:37:40.266Z,22.50
2018-09-30T04:38:40.229Z,22.60
2018-09-30T04:39:40.224Z,22.90
2018-09-30T04:40:40.197Z,23.30
2018-09-30T04:41:40.181Z,24.00
2018-09-30T04:42:40.162Z,25.50
2018-09-30T04:43:40.125Z,26.30
2018-09-30T04:44:40.104Z,25.10
2018-09-30T04:45:40.101Z,24.70
2018-09-30T04:46:40.074Z,24.60
2018-09-30T04:47:40.046Z,25.40
2018-09-30T04:48:40.023Z,24.60
2018-09-30T04:49:40.014Z,25.60
2018-09-30T04:50:39.978Z,27.60
2018-09-30T04:51:39.967Z,25.80
2018-09-30T04:52:39.951Z,23.70
2018-09-30T04:53:39.925Z,26.00
2018-09-30T04:54:39.892Z,24.80
2018-09-30T04:55:39.883Z,26.00
2018-09-30T04:56:39.863Z,23.70
2018-09-30T04:57:39.840Z,24.40
2018-09-30T04:58:39.824Z,25.10
2018-09-30T04:59:39.787Z,22.40
2018-09-30T05:00:39.767Z,23.70
2018-09-30T05:01:39.756Z,22.40
2018-09-30T05:02:39.735Z,21.60
2018-09-30T05:03:39.718Z,21.50
2018-09-30T05:04:39.701Z,22.70
2018-09-30T05:05:39.699Z,22.90
2018-09-30T05:06:39.639Z,22.30
2018-09-30T05:07:39.620Z,21.10
2018-09-30T05:08:39.597Z,22.40
2018-09-30T05:09:39.578Z,21.00
2018-09-30T05:10:39.568Z,23.70
2018-09-30T05:11:39.539Z,26.60
2018-09-30T05:12:39.532Z,27.40
2018-09-30T05:13:39.506Z,29.70
2018-09-30T05:14:39.482Z,24.60
2018-09-30T05:15:39.458Z,29.30
2018-09-30T05:16:39.440Z,28.40
2018-09-30T05:17:39.410Z,25.50
2018-09-30T05:18:39.395Z,28.30
2018-09-30T05:19:39.385Z,28.00
2018-09-30T05:20:39.344Z,29.90
2018-09-30T05:21:39.331Z,29.20
2018-09-30T05:22:39.313Z,30.10
2018-09-30T05:23:39.278Z,31.90
2018-09-30T05:24:39.263Z,30.50
2018-09-30T05:25:39.277Z,29.30
2018-09-30T05:26:39.228Z,29.20
2018-09-30T05:27:39.203Z,28.30
2018-09-30T05:28:39.175Z,30.20
2018-09-30T05:29:39.165Z,30.70
2018-09-30T05:30:39.134Z,29.10
2018-09-30T05:31:39.126Z,28.40
2018-09-30T05:32:39.095Z,31.50
2018-09-30T05:33:39.081Z,31.40
2018-09-30T05:34:39.059Z,29.20
2018-09-30T05:35:39.042Z,27.50
2018-09-30T05:36:39.021Z,26.00
2018-09-30T05:37:38.990Z,26.70
2018-09-30T05:38:38.965Z,27.30
2018-09-30T05:39:38.953Z,27.10
2018-09-30T05:40:38.930Z,27.20
2018-09-30T05:41:38.898Z,29.00
2018-09-30T05:42:38.879Z,27.40
2018-09-30T05:43:38.858Z,28.90
2018-09-30T05:44:38.834Z,27.20
2018-09-30T05:45:38.834Z,28.00
2018-09-30T05:47:12.011Z,25.50
2018-09-30T05:47:38.780Z,26.30
2018-09-30T05:48:38.764Z,25.20
2018-09-30T05:49:38.741Z,27.20
2018-09-30T05:50:38.712Z,25.60
2018-09-30T05:51:38.693Z,26.40
2018-09-30T05:52:38.680Z,26.30
2018-09-30T05:53:38.647Z,28.80
2018-09-30T05:54:38.624Z,30.90
2018-09-30T05:55:38.603Z,29.20
2018-09-30T05:56:38.596Z,31.20
2018-09-30T05:57:38.649Z,30.30
2018-09-30T05:58:38.550Z,31.80
2018-09-30T05:59:38.529Z,32.50
2018-09-30T06:00:38.498Z,28.50
2018-09-30T06:01:38.472Z,30.40
2018-09-30T06:02:38.454Z,31.40
2018-09-30T06:03:38.430Z,30.60
2018-09-30T06:04:38.427Z,33.60
2018-09-30T06:05:38.403Z,32.50
2018-09-30T06:06:38.389Z,32.90
2018-09-30T06:07:38.363Z,32.50
2018-09-30T06:08:38.345Z,30.70
2018-09-30T06:09:38.309Z,32.80
2018-09-30T06:10:38.297Z,33.20
2018-09-30T06:11:38.262Z,34.40
2018-09-30T06:12:38.242Z,33.50
2018-09-30T06:13:38.267Z,35.40
2018-09-30T06:14:38.211Z,36.00
2018-09-30T06:15:38.190Z,35.80
2018-09-30T06:16:38.172Z,35.40
2018-09-30T06:17:38.136Z,34.70
2018-09-30T06:18:38.112Z,35.20
2018-09-30T06:19:38.109Z,33.80
2018-09-30T06:20:38.086Z,35.90
2018-09-30T06:21:38.062Z,36.60
2018-09-30T06:22:38.023Z,36.60
2018-09-30T06:23:38.013Z,34.30
2018-09-30T06:24:37.985Z,35.10
2018-09-30T06:25:37.961Z,33.30
2018-09-30T06:26:37.951Z,35.70
2018-09-30T06:27:37.919Z,32.00
2018-09-30T06:28:37.912Z,30.50
2018-09-30T06:29:37.887Z,30.80
2018-09-30T06:30:37.866Z,31.90
2018-09-30T06:31:37.875Z,32.80
2018-09-30T06:32:37.818Z,31.40
2018-09-30T06:33:37.791Z,32.20
2018-09-30T06:34:37.770Z,33.60
2018-09-30T06:35:37.750Z,32.20
2018-09-30T06:36:37.731Z,31.40
2018-09-30T06:37:37.719Z,33.10
2018-09-30T06:38:37.713Z,33.20
2018-09-30T06:39:37.661Z,30.60
2018-09-30T06:40:37.640Z,31.60
2018-09-30T06:41:37.632Z,30.80
2018-09-30T06:42:37.607Z,26.90
2018-09-30T06:43:37.590Z,26.90
2018-09-30T06:44:37.570Z,28.20
2018-09-30T06:45:37.545Z,29.10
2018-09-30T06:46:37.522Z,27.40
2018-09-30T06:47:37.490Z,27.00
2018-09-30T06:48:37.476Z,28.10
2018-09-30T06:49:37.446Z,27.70
2018-09-30T06:50:37.459Z,26.60
2018-09-30T06:51:37.413Z,26.50
2018-09-30T06:52:37.387Z,27.60
2018-09-30T06:53:37.377Z,25.10
2018-09-30T06:54:37.353Z,27.60
2018-09-30T06:55:37.337Z,29.50
2018-09-30T06:56:37.304Z,30.00
2018-09-30T06:57:37.282Z,32.00
2018-09-30T06:58:37.267Z,32.70
2018-09-30T06:59:37.244Z,33.50
2018-09-30T07:00:37.226Z,31.90
2018-09-30T07:01:37.194Z,31.70
2018-09-30T07:02:37.170Z,31.40
2018-09-30T07:03:37.150Z,29.40
2018-09-30T07:04:37.139Z,31.70
2018-09-30T07:05:37.121Z,29.30
2018-09-30T07:06:37.081Z,29.80
2018-09-30T07:07:37.060Z,30.80
2018-09-30T07:08:37.055Z,30.20
2018-09-30T07:09:37.036Z,30.10
2018-09-30T07:10:37.012Z,29.80
2018-09-30T07:11:36.977Z,31.20
2018-09-30T07:12:36.958Z,35.10
2018-09-30T07:13:36.951Z,32.10
2018-09-30T07:14:36.918Z,36.00
2018-09-30T07:15:36.895Z,37.20
2018-09-30T07:16:36.879Z,36.70
2018-09-30T07:17:36.856Z,34.80
2018-09-30T07:18:36.841Z,38.00
2018-09-30T07:19:36.820Z,38.20
2018-09-30T07:20:36.788Z,37.40
2018-09-30T07:21:36.773Z,36.20
2018-09-30T07:22:36.751Z,36.30
2018-09-30T07:23:36.728Z,36.20
2018-09-30T07:24:36.706Z,37.10
2018-09-30T07:25:36.697Z,35.80
2018-09-30T07:26:36.667Z,36.90
2018-09-30T07:27:36.646Z,36.50
2018-09-30T07:28:36.620Z,36.90
2018-09-30T07:29:36.609Z,38.00
2018-09-30T07:30:36.571Z,36.40
2018-09-30T07:31:36.563Z,37.20
2018-09-30T07:32:36.533Z,35.20
2018-09-30T07:33:36.532Z,36.80
2018-09-30T07:34:36.499Z,39.10
2018-09-30T07:35:36.471Z,39.20
2018-09-30T07:36:36.457Z,36.80
2018-09-30T07:37:36.438Z,40.10
2018-09-30T07:38:36.403Z,37.90
2018-09-30T07:39:36.439Z,44.80
2018-09-30T07:40:36.364Z,40.70
2018-09-30T07:41:36.350Z,39.30
2018-09-30T07:42:36.322Z,41.60
2018-09-30T07:43:36.296Z,38.30
2018-09-30T07:44:36.276Z,36.50
2018-09-30T07:45:36.262Z,37.30
2018-09-30T07:46:36.289Z,37.60
2018-09-30T07:47:36.215Z,36.10
2018-09-30T07:48:36.191Z,35.70
2018-09-30T07:49:36.179Z,37.30
2018-09-30T07:50:36.143Z,33.60
2018-09-30T07:51:36.142Z,34.80
2018-09-30T07:52:36.176Z,37.70
2018-09-30T07:53:36.090Z,36.10
2018-09-30T07:54:36.059Z,35.50
2018-09-30T07:55:36.042Z,37.20
2018-09-30T07:56:36.021Z,36.10
2018-09-30T07:57:36.008Z,38.00
2018-09-30T07:58:35.987Z,37.50
2018-09-30T07:59:35.968Z,36.30
2018-09-30T08:00:35.943Z,37.50
2018-09-30T08:01:35.923Z,38.60
2018-09-30T08:02:35.898Z,35.60
2018-09-30T08:03:35.886Z,37.70
2018-09-30T08:04:35.858Z,35.30
2018-09-30T08:05:35.831Z,33.80
2018-09-30T08:06:35.815Z,33.70
2018-09-30T08:07:35.792Z,33.50
2018-09-30T08:08:35.772Z,36.30
2018-09-30T08:09:35.740Z,37.00
2018-09-30T08:10:35.712Z,36.70
2018-09-30T08:11:35.693Z,35.40
2018-09-30T08:12:35.686Z,35.10
2018-09-30T08:13:35.667Z,34.00
2018-09-30T08:14:35.630Z,37.10
2018-09-30T08:15:35.629Z,35.50
2018-09-30T08:16:35.724Z,36.20
2018-09-30T08:17:35.579Z,35.30
2018-09-30T08:18:35.556Z,34.70
2018-09-30T08:19:35.535Z,36.10
2018-09-30T08:20:35.512Z,36.40
2018-09-30T08:21:35.495Z,36.10
2018-09-30T08:22:35.469Z,35.00
2018-09-30T08:23:35.439Z,38.30
2018-09-30T08:24:35.509Z,36.40
2018-09-30T08:25:35.405Z,35.20
2018-09-30T08:26:35.376Z,35.40
2018-09-30T08:27:35.359Z,38.00
2018-09-30T08:28:35.336Z,36.00
2018-09-30T08:29:35.318Z,33.50
2018-09-30T08:30:35.357Z,37.20
2018-09-30T08:31:35.277Z,37.90
2018-09-30T08:32:35.254Z,37.20
2018-09-30T08:33:35.218Z,36.40
2018-09-30T08:34:35.199Z,37.90
2018-09-30T08:35:35.192Z,38.00
2018-09-30T08:36:35.171Z,40.30
2018-09-30T08:37:35.148Z,38.10
2018-09-30T08:38:35.116Z,39.20
2018-09-30T08:39:35.163Z,39.50
2018-09-30T08:40:35.085Z,38.60
2018-09-30T08:41:35.055Z,37.80
2018-09-30T08:42:35.039Z,38.50
2018-09-30T08:43:35.016Z,37.60
2018-09-30T08:44:34.991Z,36.50
2018-09-30T08:45:34.960Z,36.70
2018-09-30T08:46:34.978Z,36.60
2018-09-30T08:47:34.976Z,36.10
2018-09-30T08:48:34.915Z,37.80
2018-09-30T08:49:34.881Z,38.80
2018-09-30T08:50:34.865Z,37.30
2018-09-30T08:51:34.867Z,37.50
2018-09-30T08:52:34.821Z,36.20
2018-09-30T08:53:34.797Z,35.00
2018-09-30T08:54:34.786Z,34.50
2018-09-30T08:55:34.755Z,36.00
2018-09-30T08:56:34.730Z,36.60
2018-09-30T08:57:34.714Z,34.40
2018-09-30T08:58:34.694Z,34.80
2018-09-30T08:59:34.684Z,34.10
2018-09-30T09:00:34.648Z,33.10
2018-09-30T09:01:34.630Z,32.60
2018-09-30T09:02:34.611Z,32.80
2018-09-30T09:03:34.584Z,33.40
2018-09-30T09:04:34.573Z,31.00
2018-09-30T09:05:34.542Z,32.20
2018-09-30T09:06:34.533Z,31.90
2018-09-30T09:07:34.511Z,32.30
2018-09-30T09:08:34.477Z,33.10
2018-09-30T09:09:34.457Z,31.50
2018-09-30T09:10:34.435Z,33.10
2018-09-30T09:11:34.430Z,35.20
2018-09-30T09:12:34.392Z,35.10
2018-09-30T09:13:34.393Z,32.60
2018-09-30T09:14:34.366Z,33.10
2018-09-30T09:15:34.362Z,34.90
2018-09-30T09:16:34.310Z,34.40
2018-09-30T09:17:34.299Z,33.50
2018-09-30T09:18:34.265Z,34.70
2018-09-30T09:19:34.259Z,35.30
2018-09-30T09:20:34.239Z,35.80
2018-09-30T09:21:34.203Z,34.70
2018-09-30T09:22:34.204Z,35.00
2018-09-30T09:23:34.161Z,34.20
2018-09-30T09:24:34.134Z,35.80
2018-09-30T09:25:34.133Z,33.40
2018-09-30T09:26:34.091Z,32.30
2018-09-30T09:27:34.067Z,32.80
2018-09-30T09:28:34.065Z,34.90
2018-09-30T09:29:34.030Z,34.50
2018-09-30T09:30:34.021Z,34.00
2018-09-30T09:31:34.025Z,33.30
2018-09-30T09:32:33.974Z,36.30
2018-09-30T09:33:33.956Z,34.10
2018-09-30T09:34:33.927Z,34.80
2018-09-30T09:35:33.918Z,36.50
2018-09-30T09:36:33.894Z,33.90
2018-09-30T09:37:33.871Z,34.40
2018-09-30T09:38:34.029Z,35.60
2018-09-30T09:39:33.822Z,36.60
2018-09-30T09:40:33.808Z,34.80
2018-09-30T09:41:33.786Z,36.20
2018-09-30T09:42:33.766Z,34.70
2018-09-30T09:43:33.735Z,35.30
2018-09-30T09:44:33.713Z,35.10
2018-09-30T09:45:33.690Z,35.80
2018-09-30T09:46:33.669Z,38.30
2018-09-30T09:47:33.659Z,36.70
2018-09-30T09:48:33.642Z,34.40
2018-09-30T09:49:33.611Z,33.70
2018-09-30T09:50:33.596Z,34.50
2018-09-30T09:51:33.579Z,32.10
2018-09-30T09:52:33.623Z,33.60
2018-09-30T09:53:33.537Z,33.10
2018-09-30T09:54:33.516Z,31.80
2018-09-30T09:55:33.496Z,33.30
2018-09-30T09:56:33.475Z,33.00
2018-09-30T09:57:33.453Z,33.30
2018-09-30T09:58:33.436Z,32.00
2018-09-30T09:59:33.416Z,33.10
2018-09-30T10:00:33.393Z,33.40
2018-09-30T10:01:33.358Z,31.10
2018-09-30T10:02:33.340Z,35.70
2018-09-30T10:03:33.326Z,35.80
2018-09-30T10:04:33.409Z,33.50
2018-09-30T10:05:33.285Z,34.30
2018-09-30T10:06:33.283Z,32.80
2018-09-30T10:07:33.245Z,30.50
2018-09-30T10:08:33.218Z,32.00
2018-09-30T10:09:33.192Z,33.20
2018-09-30T10:10:33.194Z,32.50
2018-09-30T10:11:33.157Z,31.20
2018-09-30T10:12:33.152Z,32.60
2018-09-30T10:13:33.126Z,32.00
2018-09-30T10:14:33.108Z,34.30
2018-09-30T10:15:33.094Z,29.90
2018-09-30T10:16:33.064Z,31.10
2018-09-30T10:17:33.052Z,33.10
2018-09-30T10:18:33.034Z,32.50
2018-09-30T10:19:33.063Z,32.80
2018-09-30T10:20:32.984Z,32.50
2018-09-30T10:21:32.969Z,32.40
2018-09-30T10:22:32.936Z,34.10
2018-09-30T10:23:32.917Z,34.70
2018-09-30T10:24:32.903Z,33.50
2018-09-30T10:25:32.883Z,32.50
2018-09-30T10:26:32.872Z,34.10
2018-09-30T10:27:32.857Z,32.00
2018-09-30T10:28:32.841Z,33.50
2018-09-30T10:29:32.803Z,34.40
2018-09-30T10:30:32.781Z,33.20
2018-09-30T10:31:32.772Z,33.50
2018-09-30T10:32:32.743Z,31.80
2018-09-30T10:33:32.721Z,32.20
2018-09-30T10:34:32.711Z,32.30
2018-09-30T10:35:32.693Z,33.20
2018-09-30T10:36:32.667Z,33.00
2018-09-30T10:37:32.664Z,33.70
2018-09-30T10:38:32.806Z,31.20
2018-09-30T10:39:32.605Z,33.30
2018-09-30T10:40:32.598Z,32.30
2018-09-30T10:41:32.589Z,34.40
2018-09-30T10:42:32.548Z,32.50
2018-09-30T10:43:32.540Z,31.70
2018-09-30T10:44:32.509Z,32.60
2018-09-30T10:45:32.506Z,31.70
2018-09-30T10:46:32.475Z,31.80
2018-09-30T10:47:32.468Z,30.30
2018-09-30T10:48:32.492Z,31.20
2018-09-30T10:49:32.407Z,30.40
2018-09-30T10:50:32.395Z,30.50
2018-09-30T10:51:32.375Z,31.50
2018-09-30T10:52:32.367Z,31.60
2018-09-30T10:53:32.345Z,32.50
2018-09-30T10:54:32.330Z,30.70
2018-09-30T10:55:32.308Z,31.60
2018-09-30T10:56:32.284Z,30.40
2018-09-30T10:57:32.262Z,32.00
2018-09-30T10:58:32.253Z,30.00
2018-09-30T10:59:32.234Z,30.30
2018-09-30T11:00:32.206Z,32.10
2018-09-30T11:01:32.193Z,31.60
2018-09-30T11:02:32.174Z,30.80
2018-09-30T11:03:32.213Z,32.40
2018-09-30T11:04:32.145Z,30.90
2018-09-30T11:05:32.107Z,32.60
2018-09-30T11:06:32.088Z,31.60
2018-09-30T11:07:32.068Z,32.00
2018-09-30T11:08:32.057Z,29.90
2018-09-30T11:09:32.045Z,29.90
2018-09-30T11:10:32.023Z,30.80
2018-09-30T11:11:32.003Z,30.10
2018-09-30T11:12:31.973Z,31.30
2018-09-30T11:13:31.952Z,31.20
2018-09-30T11:14:31.946Z,33.10
2018-09-30T11:15:31.917Z,31.70
2018-09-30T11:16:31.894Z,30.60
2018-09-30T11:17:31.882Z,30.70
2018-09-30T11:18:31.863Z,30.20
2018-09-30T11:19:31.848Z,33.10
2018-09-30T11:20:31.835Z,32.40
2018-09-30T11:21:31.816Z,30.70
2018-09-30T11:22:31.896Z,29.80
2018-09-30T11:23:31.777Z,30.20
2018-09-30T11:24:31.752Z,31.30
2018-09-30T11:25:31.724Z,29.70
2018-09-30T11:26:31.708Z,31.60
2018-09-30T11:27:31.699Z,31.00
2018-09-30T11:28:31.681Z,30.90
2018-09-30T11:29:31.658Z,29.60
2018-09-30T11:30:31.642Z,31.20
2018-09-30T11:31:31.608Z,30.60
2018-09-30T11:32:31.604Z,29.60
2018-09-30T11:33:31.585Z,30.80
2018-09-30T11:34:31.551Z,29.80
2018-09-30T11:35:31.540Z,30.70
2018-09-30T11:36:31.514Z,31.80
2018-09-30T11:37:31.510Z,31.60
2018-09-30T11:38:31.476Z,32.30
2018-09-30T11:39:31.460Z,32.70
2018-09-30T11:40:31.460Z,32.60
2018-09-30T11:41:31.441Z,30.70
2018-09-30T11:42:31.405Z,34.10
2018-09-30T11:43:31.399Z,31.10
2018-09-30T11:44:31.380Z,31.60
2018-09-30T11:45:31.349Z,31.10
2018-09-30T11:46:31.330Z,31.00
2018-09-30T11:47:31.312Z,30.20
2018-09-30T11:48:31.312Z,30.10
2018-09-30T11:49:31.275Z,31.30
2018-09-30T11:50:31.255Z,32.10
2018-09-30T11:51:31.239Z,30.40
2018-09-30T11:52:31.272Z,30.40
2018-09-30T11:53:31.210Z,31.30
2018-09-30T11:54:31.177Z,29.60
2018-09-30T11:55:31.161Z,30.30
2018-09-30T11:56:31.141Z,30.30
2018-09-30T11:57:31.125Z,31.30
2018-09-30T11:58:31.123Z,30.70
2018-09-30T11:59:31.099Z,30.90
2018-09-30T12:00:31.073Z,30.30
2018-09-30T12:01:31.059Z,31.80
2018-09-30T12:02:31.033Z,33.30
2018-09-30T12:03:31.024Z,32.10
2018-09-30T12:04:31.004Z,30.50
2018-09-30T12:05:30.991Z,29.70
2018-09-30T12:06:30.960Z,33.50
2018-09-30T12:07:30.942Z,33.10
2018-09-30T12:08:30.935Z,32.60
2018-09-30T12:09:30.909Z,30.30
2018-09-30T12:10:30.892Z,29.80
2018-09-30T12:11:30.868Z,31.00
2018-09-30T12:12:30.856Z,31.00
2018-09-30T12:13:30.837Z,32.50
2018-09-30T12:14:30.808Z,32.10
2018-09-30T12:15:30.788Z,31.70
2018-09-30T12:16:30.772Z,30.90
2018-09-30T12:17:30.761Z,31.60
2018-09-30T12:18:30.735Z,32.00
2018-09-30T12:19:30.708Z,31.10
2018-09-30T12:20:30.707Z,30.50
2018-09-30T12:21:30.685Z,29.50
2018-09-30T12:22:30.671Z,30.00
2018-09-30T12:23:30.646Z,30.30
2018-09-30T12:24:30.621Z,29.20
2018-09-30T12:25:30.602Z,29.80
2018-09-30T12:26:30.587Z,29.10
2018-09-30T12:27:30.561Z,29.90
2018-09-30T12:28:30.554Z,30.00
2018-09-30T12:29:30.537Z,29.20
2018-09-30T12:30:30.518Z,30.30
2018-09-30T12:31:30.496Z,31.30
2018-09-30T12:32:30.481Z,31.70
2018-09-30T12:33:30.455Z,32.20
2018-09-30T12:34:30.439Z,31.70
2018-09-30T12:35:30.427Z,29.90
2018-09-30T12:36:30.401Z,31.00
2018-09-30T12:37:30.372Z,31.60
2018-09-30T12:38:30.369Z,31.30
2018-09-30T12:39:30.338Z,30.40
2018-09-30T12:40:30.314Z,30.80
2018-09-30T12:41:30.300Z,29.90
2018-09-30T12:42:30.275Z,31.50
2018-09-30T12:43:30.270Z,32.60
2018-09-30T12:44:30.253Z,31.10
2018-09-30T12:45:30.224Z,32.50
2018-09-30T12:46:30.209Z,30.70
2018-09-30T12:47:30.186Z,32.10
2018-09-30T12:48:30.172Z,31.00
2018-09-30T12:49:30.149Z,30.20
2018-09-30T12:50:30.139Z,29.40
2018-09-30T12:51:30.124Z,31.10
2018-09-30T12:52:30.093Z,32.00